Time;durP1;ratioP1;P1;durP2;ratioP2;P2;SDS_P1;SDS_P2;PMS_P1;PMS_P2;Temp;Humidity;BMP_temperature;BMP_pressure;BME280_temperature;BME280_humidity;BME280_pressure;Samples;Min_cycle;Max_cycle;Signal;HPM_P1;HPM_P2
2022/10/01 00:00:12;;;;;;;11.48;7.93;;;12.00;99.90;;;;;;5053582;28;20025;-67
2022/10/01 00:02:38;;;;;;;10.32;7.40;;;12.00;99.90;;;;;;5052753;28;20021;-53
2022/10/01 00:05:09;;;;;;;10.32;7.20;;;12.00;99.90;;;;;;5052427;28;20381;-59
2022/10/01 00:07:43;;;;;;;14.40;8.60;;;12.00;99.90;;;;;;5052755;28;20566;-61
2022/10/01 00:10:09;;;;;;;12.85;9.73;;;12.00;99.90;;;;;;5052774;28;20084;-55
2022/10/01 00:12:36;;;;;;;15.20;11.32;;;12.00;99.90;;;;;;5053281;28;20025;-53
2022/10/01 00:15:02;;;;;;;13.60;9.77;;;11.90;99.90;;;;;;5052094;28;20123;-58
2022/10/01 00:17:28;;;;;;;15.93;11.40;;;11.90;99.90;;;;;;5052467;28;20204;-66
2022/10/01 00:19:54;;;;;;;16.17;11.73;;;11.90;99.90;;;;;;5052733;28;20522;-56
2022/10/01 00:22:20;;;;;;;18.15;13.18;;;11.90;99.90;;;;;;5052436;28;20021;-67
2022/10/01 00:24:46;;;;;;;14.90;9.30;;;11.90;99.90;;;;;;5052515;28;20110;-56
2022/10/01 00:27:12;;;;;;;17.75;12.77;;;11.90;99.90;;;;;;5053497;28;20159;-54
2022/10/01 00:29:39;;;;;;;16.48;11.88;;;11.90;99.90;;;;;;5051740;28;20406;-56
2022/10/01 00:32:04;;;;;;;15.73;11.27;;;11.80;99.90;;;;;;5052580;28;20050;-59
2022/10/01 00:34:30;;;;;;;17.45;12.52;;;11.90;99.90;;;;;;5052392;28;20106;-56
2022/10/01 00:36:55;;;;;;;16.90;12.20;;;11.80;99.90;;;;;;5051729;28;20382;-57
2022/10/01 00:39:22;;;;;;;18.52;12.80;;;11.80;99.90;;;;;;5052230;28;20466;-48
2022/10/01 00:41:48;;;;;;;14.05;9.50;;;11.80;99.90;;;;;;5052520;28;20029;-56
2022/10/01 00:44:31;;;;;;;12.93;9.30;;;11.80;99.90;;;;;;5051942;28;20021;-57
2022/10/01 00:47:20;;;;;;;15.93;10.15;;;11.80;99.90;;;;;;5051799;28;20509;-54
2022/10/01 00:49:47;;;;;;;14.55;10.38;;;11.80;99.90;;;;;;5044516;28;20041;-53
2022/10/01 00:52:20;;;;;;;20.33;13.20;;;11.70;99.90;;;;;;5052123;28;20032;-60
2022/10/01 00:54:51;;;;;;;17.10;11.88;;;11.70;99.90;;;;;;5055402;28;20017;-59
2022/10/01 00:57:22;;;;;;;15.50;11.25;;;11.70;99.90;;;;;;5053096;28;20025;-62
2022/10/01 00:59:49;;;;;;;18.40;12.82;;;11.70;99.90;;;;;;5052224;28;20044;-70
2022/10/01 01:02:14;;;;;;;17.67;12.52;;;11.60;99.90;;;;;;5052483;28;20105;-73
2022/10/01 01:04:40;;;;;;;15.23;11.07;;;11.60;99.90;;;;;;5052036;28;20107;-64
2022/10/01 01:07:08;;;;;;;15.85;10.85;;;11.60;99.90;;;;;;5051835;28;20029;-72
2022/10/01 01:09:37;;;;;;;16.05;11.63;;;11.60;99.90;;;;;;5051892;28;20086;-63
2022/10/01 01:12:15;;;;;;;19.20;12.85;;;11.60;99.90;;;;;;5050450;28;20767;-66
2022/10/01 01:14:46;;;;;;;23.85;14.90;;;11.70;99.90;;;;;;5052248;28;20385;-50
2022/10/01 01:17:56;;;;;;;20.42;14.63;;;11.70;99.90;;;;;;5051110;28;20048;-54
2022/10/01 01:20:48;;;;;;;20.00;14.05;;;11.60;99.90;;;;;;5040535;28;20037;-51
2022/10/01 01:23:14;;;;;;;21.95;14.18;;;11.60;99.90;;;;;;5051992;28;20025;-51
2022/10/01 01:25:46;;;;;;;25.13;15.05;;;11.60;99.90;;;;;;5051251;28;20446;-49
2022/10/01 01:28:18;;;;;;;;;;;11.50;99.90;;;;;;5051661;28;20041;-54
2022/10/01 01:30:48;;;;;;;19.02;11.52;;;11.50;99.90;;;;;;5051713;28;19905;-59
2022/10/01 01:33:19;;;;;;;14.40;9.98;;;11.50;99.90;;;;;;5051231;28;20021;-53
2022/10/01 01:35:53;;;;;;;15.98;11.45;;;11.50;99.90;;;;;;5051188;28;20025;-63
2022/10/01 01:38:23;;;;;;;17.33;9.40;;;11.50;99.90;;;;;;5050764;28;20035;-56
2022/10/01 01:40:51;;;;;;;11.15;8.60;;;11.50;99.90;;;;;;5050588;28;20534;-55
2022/10/01 01:43:22;;;;;;;11.45;7.45;;;11.50;99.90;;;;;;5051404;28;20039;-54
2022/10/01 01:45:50;;;;;;;16.00;10.20;;;11.50;99.90;;;;;;5051086;28;20509;-65
2022/10/01 01:48:15;;;;;;;19.00;13.60;;;11.40;99.90;;;;;;5049912;28;20493;-63
2022/10/01 01:50:47;;;;;;;16.55;10.95;;;11.40;99.90;;;;;;5051437;28;20032;-61
2022/10/01 01:53:14;;;;;;;19.48;13.98;;;11.50;99.90;;;;;;5051117;28;20055;-63
2022/10/01 01:55:40;;;;;;;19.20;13.30;;;11.50;99.90;;;;;;5051546;28;20092;-64
2022/10/01 01:58:07;;;;;;;18.42;13.68;;;11.50;99.90;;;;;;5049160;28;20455;-58
2022/10/01 02:00:32;;;;;;;23.33;15.88;;;11.50;99.90;;;;;;5051023;28;20030;-59
2022/10/01 02:02:58;;;;;;;20.42;13.25;;;11.50;99.90;;;;;;5050836;28;20033;-62
2022/10/01 02:05:36;;;;;;;21.17;14.57;;;11.40;99.90;;;;;;5051389;28;20044;-56
2022/10/01 02:08:07;;;;;;;25.20;14.85;;;11.50;99.90;;;;;;5049507;28;20037;-65
2022/10/01 02:10:51;;;;;;;23.30;14.70;;;11.40;99.90;;;;;;5051373;28;20790;-61
2022/10/01 02:13:49;;;;;;;19.58;12.68;;;11.40;99.90;;;;;;5049574;28;20443;-53
2022/10/01 02:16:32;;;;;;;21.80;14.57;;;11.50;99.90;;;;;;5050598;28;20041;-62
2022/10/01 02:19:25;;;;;;;20.33;13.57;;;11.40;99.90;;;;;;5050021;28;20040;-64
2022/10/01 02:21:55;;;;;;;22.65;14.05;;;11.30;99.90;;;;;;5050045;28;20041;-64
2022/10/01 02:24:38;;;;;;;19.02;12.60;;;11.30;99.90;;;;;;5051186;28;20346;-65
2022/10/01 02:27:12;;;;;;;13.38;9.35;;;11.30;99.90;;;;;;5051040;28;20039;-54
2022/10/01 02:29:39;;;;;;;12.93;8.68;;;11.30;99.90;;;;;;5049101;28;20334;-62
2022/10/01 02:32:05;;;;;;;12.98;9.10;;;11.30;99.90;;;;;;5050724;28;20036;-62
2022/10/01 02:34:32;;;;;;;14.00;8.60;;;11.30;99.90;;;;;;5050745;28;20028;-61
2022/10/01 02:37:03;;;;;;;14.32;7.90;;;11.30;99.90;;;;;;5050237;28;20033;-54
2022/10/01 02:39:30;;;;;;;16.00;9.93;;;11.30;99.90;;;;;;5049965;28;20366;-55
2022/10/01 02:41:58;;;;;;;21.88;13.85;;;11.30;99.90;;;;;;5050765;28;20021;-60
2022/10/01 02:44:31;;;;;;;18.33;11.93;;;11.30;99.90;;;;;;5050352;28;20103;-65
2022/10/01 02:47:08;;;;;;;15.40;10.43;;;11.30;99.90;;;;;;5050722;28;20053;-57
2022/10/01 02:49:35;;;;;;;13.55;9.75;;;11.30;99.90;;;;;;5049259;28;20398;-52
2022/10/01 02:52:41;;;;;;;14.52;10.57;;;11.30;99.90;;;;;;5050480;28;20036;-57
2022/10/01 02:55:21;;;;;;;15.73;9.93;;;11.30;99.90;;;;;;5050622;28;20032;-56
2022/10/01 02:57:47;;;;;;;14.80;10.17;;;11.30;99.90;;;;;;5049566;28;20090;-52
2022/10/01 03:00:20;;;;;;;13.85;8.90;;;11.30;99.90;;;;;;5050572;28;20029;-50
2022/10/01 03:02:46;;;;;;;15.15;10.75;;;11.40;99.90;;;;;;5051332;28;20462;-56
2022/10/01 03:05:11;;;;;;;10.82;7.80;;;11.30;99.90;;;;;;5051604;28;20021;-67
2022/10/01 03:07:38;;;;;;;12.98;8.88;;;11.40;99.90;;;;;;5050505;28;20397;-70
2022/10/01 03:10:05;;;;;;;13.55;8.35;;;11.40;99.90;;;;;;5050459;28;20039;-69
2022/10/01 03:12:31;;;;;;;11.88;6.38;;;11.30;99.90;;;;;;5050243;28;20040;-71
2022/10/01 03:14:57;;;;;;;8.93;5.30;;;11.30;99.90;;;;;;5049164;28;20021;-65
2022/10/01 03:17:23;;;;;;;8.80;6.32;;;11.40;99.90;;;;;;5050170;28;20091;-66
2022/10/01 03:19:48;;;;;;;6.70;4.30;;;11.40;99.90;;;;;;5049650;28;20032;-71
2022/10/01 03:22:21;;;;;;;5.15;3.40;;;11.40;99.90;;;;;;5050909;28;20100;-70
2022/10/01 03:24:47;;;;;;;5.35;3.42;;;11.40;99.90;;;;;;5049954;28;20106;-62
2022/10/01 03:27:13;;;;;;;5.32;3.33;;;11.40;99.90;;;;;;5050703;28;20029;-58
2022/10/01 03:29:38;;;;;;;4.47;2.97;;;11.40;99.90;;;;;;5050322;28;20104;-55
2022/10/01 03:32:04;;;;;;;4.47;2.70;;;11.40;99.90;;;;;;5049195;28;20037;-61
2022/10/01 03:34:29;;;;;;;4.35;2.75;;;11.40;99.90;;;;;;5050175;28;20031;-61
2022/10/01 03:36:55;;;;;;;4.25;2.60;;;11.40;99.90;;;;;;5050431;28;20096;-65
2022/10/01 03:39:21;;;;;;;5.10;2.40;;;11.40;99.90;;;;;;5049334;28;20458;-60
2022/10/01 03:41:46;;;;;;;3.97;2.67;;;11.40;99.90;;;;;;5050710;28;20036;-58
2022/10/01 03:44:12;;;;;;;4.30;2.40;;;11.50;99.90;;;;;;5053823;28;20029;-54
2022/10/01 03:46:38;;;;;;;3.58;2.03;;;11.50;99.90;;;;;;5053304;28;20108;-57
2022/10/01 03:49:04;;;;;;;3.95;2.30;;;11.50;99.90;;;;;;5052881;28;20379;-58
2022/10/01 03:51:30;;;;;;;2.55;1.92;;;11.50;99.90;;;;;;5053389;28;20064;-56
2022/10/01 03:53:57;;;;;;;3.47;2.42;;;11.50;99.90;;;;;;5033003;28;20022;-57
2022/10/01 03:56:23;;;;;;;4.28;2.40;;;11.50;99.90;;;;;;5034072;28;20094;-65
2022/10/01 03:58:49;;;;;;;3.60;2.20;;;11.50;99.90;;;;;;5032868;28;20493;-56
2022/10/01 04:01:15;;;;;;;3.65;2.35;;;11.50;99.90;;;;;;5033124;28;20104;-54
2022/10/01 04:03:42;;;;;;;2.85;2.13;;;11.50;99.90;;;;;;5033316;28;20017;-62
2022/10/01 04:06:08;;;;;;;3.78;2.17;;;11.50;99.90;;;;;;5033618;28;20033;-62
2022/10/01 04:08:34;;;;;;;3.85;2.15;;;11.60;99.90;;;;;;5032377;28;20029;-64
2022/10/01 04:10:59;;;;;;;3.38;2.03;;;11.60;99.90;;;;;;5033318;28;20053;-62
2022/10/01 04:13:26;;;;;;;4.18;2.72;;;11.60;99.90;;;;;;5032803;28;20021;-64
2022/10/01 04:15:51;;;;;;;3.92;2.50;;;11.60;99.90;;;;;;5032527;28;20359;-63
2022/10/01 04:18:20;;;;;;;5.35;2.80;;;11.60;99.90;;;;;;5033089;28;20519;-60
2022/10/01 04:20:46;;;;;;;5.47;2.47;;;11.60;99.90;;;;;;5033157;28;20057;-66
2022/10/01 04:23:12;;;;;;;4.35;2.65;;;11.70;99.90;;;;;;5032456;28;20025;-65
2022/10/01 04:25:37;;;;;;;4.53;2.47;;;11.70;99.90;;;;;;5033159;28;20037;-61
2022/10/01 04:28:05;;;;;;;5.03;2.70;;;11.70;99.90;;;;;;5031870;28;20041;-58
2022/10/01 04:30:36;;;;;;;4.00;2.50;;;11.70;99.90;;;;;;5033453;28;20025;-63
2022/10/01 04:33:03;;;;;;;5.03;2.70;;;11.80;99.90;;;;;;5032525;28;20029;-67
2022/10/01 04:35:29;;;;;;;4.18;2.25;;;11.80;99.90;;;;;;5032674;28;20036;-69
2022/10/01 04:37:55;;;;;;;4.25;2.47;;;11.80;99.90;;;;;;5032297;28;20029;-53
2022/10/01 04:40:21;;;;;;;3.88;2.40;;;11.80;99.90;;;;;;5032660;28;20080;-67
2022/10/01 04:42:46;;;;;;;4.15;2.70;;;11.80;99.90;;;;;;5031703;28;20029;-62
2022/10/01 04:45:12;;;;;;;4.00;2.33;;;11.90;99.90;;;;;;5032642;28;20026;-53
2022/10/01 04:47:46;;;;;;;5.25;2.90;;;11.90;99.90;;;;;;5032448;28;20098;-60
2022/10/01 04:50:11;;;;;;;5.07;2.70;;;11.90;99.90;;;;;;5034504;28;20036;-64
2022/10/01 04:52:37;;;;;;;4.80;2.80;;;11.90;99.90;;;;;;5051838;28;20021;-60
2022/10/01 04:55:02;;;;;;;4.28;2.75;;;12.00;99.90;;;;;;5050740;28;20029;-61
2022/10/01 04:57:28;;;;;;;4.47;2.60;;;11.90;99.90;;;;;;5051303;28;20021;-55
2022/10/01 04:59:54;;;;;;;4.43;2.10;;;12.00;99.90;;;;;;5052123;28;20071;-60
2022/10/01 05:02:20;;;;;;;4.82;2.72;;;12.00;99.90;;;;;;5052401;28;20029;-55
2022/10/01 05:04:46;;;;;;;4.55;2.35;;;12.00;99.90;;;;;;5051297;28;20018;-67
2022/10/01 05:07:12;;;;;;;2.50;2.13;;;12.00;99.90;;;;;;5052754;28;20017;-56
2022/10/01 05:09:37;;;;;;;5.30;2.20;;;12.00;99.90;;;;;;5051709;28;20024;-51
2022/10/01 05:12:03;;;;;;;2.90;2.13;;;12.00;99.90;;;;;;5052659;28;20402;-56
2022/10/01 05:14:29;;;;;;;4.35;2.22;;;12.00;99.90;;;;;;5053250;28;20032;-67
2022/10/01 05:16:54;;;;;;;3.15;2.40;;;12.10;99.90;;;;;;5052062;28;20072;-71
2022/10/01 05:19:20;;;;;;;3.10;2.30;;;12.10;99.90;;;;;;5050992;28;20473;-59
2022/10/01 05:21:46;;;;;;;2.97;2.08;;;12.10;99.90;;;;;;5051871;28;20021;-63
2022/10/01 05:24:12;;;;;;;3.05;2.20;;;12.20;99.90;;;;;;5051256;28;20029;-70
2022/10/01 05:26:37;;;;;;;3.35;2.25;;;12.20;99.90;;;;;;5052180;28;20021;-65
2022/10/01 05:29:03;;;;;;;5.35;2.80;;;12.20;99.90;;;;;;5051186;28;20511;-67
2022/10/01 05:31:29;;;;;;;3.95;2.75;;;12.20;99.90;;;;;;5051569;28;20127;-66
2022/10/01 05:33:54;;;;;;;4.90;2.78;;;12.20;99.90;;;;;;5051577;28;20096;-62
2022/10/01 05:36:20;;;;;;;5.07;2.97;;;12.20;99.90;;;;;;5051779;28;20166;-50
2022/10/01 05:38:51;;;;;;;4.40;2.88;;;12.20;99.90;;;;;;5050676;28;20025;-68
2022/10/01 05:41:17;;;;;;;4.82;2.95;;;12.20;99.90;;;;;;5052217;28;20358;-59
2022/10/01 05:43:43;;;;;;;4.95;2.97;;;12.30;99.90;;;;;;5051403;28;20438;-64
2022/10/01 05:46:09;;;;;;;4.00;2.80;;;12.30;99.90;;;;;;5050367;28;20025;-56
2022/10/01 05:48:36;;;;;;;4.22;2.75;;;12.30;99.90;;;;;;5051242;28;20028;-51
2022/10/01 05:51:05;;;;;;;4.88;3.22;;;12.30;99.90;;;;;;5051366;28;20029;-60
2022/10/01 05:53:31;;;;;;;4.63;2.83;;;12.30;99.90;;;;;;5051208;28;20024;-58
2022/10/01 05:56:01;;;;;;;3.60;2.65;;;12.30;99.90;;;;;;5050689;28;20059;-54
2022/10/01 05:58:26;;;;;;;6.53;3.20;;;12.30;99.90;;;;;;5050681;28;20028;-53
2022/10/01 06:00:54;;;;;;;6.55;3.33;;;12.30;99.90;;;;;;5047561;28;20432;-62
2022/10/01 06:03:20;;;;;;;4.57;3.30;;;12.30;99.90;;;;;;5065594;28;20127;-66
2022/10/01 06:05:45;;;;;;;5.75;3.40;;;12.30;99.90;;;;;;5069487;28;20029;-55
2022/10/01 06:08:11;;;;;;;4.95;3.33;;;12.30;99.90;;;;;;5069598;28;20032;-55
2022/10/01 06:10:37;;;;;;;5.70;3.67;;;12.30;99.90;;;;;;5071338;28;20025;-59
2022/10/01 06:13:04;;;;;;;6.38;3.38;;;12.30;99.90;;;;;;5068852;28;20355;-70
2022/10/01 06:15:33;;;;;;;5.30;3.63;;;12.30;99.90;;;;;;5070498;28;20024;-53
2022/10/01 06:18:06;;;;;;;5.60;3.35;;;12.40;99.90;;;;;;5069492;28;20048;-60
2022/10/01 06:20:32;;;;;;;7.70;3.03;;;12.40;99.90;;;;;;5070411;28;20035;-60
2022/10/01 06:22:58;;;;;;;5.15;3.53;;;12.40;99.90;;;;;;5070503;28;20024;-52
2022/10/01 06:25:27;;;;;;;5.80;3.78;;;12.40;99.90;;;;;;5069408;28;20032;-61
2022/10/01 06:27:56;;;;;;;6.20;3.58;;;12.40;99.90;;;;;;5069129;28;20115;-52
2022/10/01 06:30:27;;;;;;;7.00;3.88;;;12.50;99.90;;;;;;5047239;28;20026;-56
2022/10/01 06:33:01;;;;;;;5.93;3.92;;;12.50;99.90;;;;;;5030647;28;20022;-61
2022/10/01 06:35:27;;;;;;;11.27;4.03;;;12.60;99.90;;;;;;5030141;28;20025;-56
2022/10/01 06:37:53;;;;;;;7.30;4.60;;;12.60;99.90;;;;;;5029671;28;20033;-66
2022/10/01 06:40:19;;;;;;;7.20;4.53;;;12.60;99.90;;;;;;5030180;28;20496;-55
2022/10/01 06:42:48;;;;;;;6.10;4.10;;;12.60;99.90;;;;;;5029689;28;20052;-55
2022/10/01 06:45:15;;;;;;;8.90;4.95;;;12.60;99.90;;;;;;5030672;28;20549;-52
2022/10/01 06:47:41;;;;;;;7.72;5.25;;;12.70;99.90;;;;;;5029571;28;20108;-53
2022/10/01 06:50:06;;;;;;;8.15;5.20;;;12.80;99.90;;;;;;5029648;28;20034;-57
2022/10/01 06:52:50;;;;;;;7.38;4.72;;;12.70;99.90;;;;;;5030542;28;20470;-55
2022/10/01 06:55:21;;;;;;;8.43;5.68;;;12.70;99.90;;;;;;5030597;28;20025;-55
2022/10/01 06:57:49;;;;;;;9.20;5.75;;;12.70;99.90;;;;;;5028769;28;20034;-50
2022/10/01 07:00:14;;;;;;;8.23;5.45;;;12.70;99.90;;;;;;5030683;28;20025;-49
2022/10/01 07:02:40;;;;;;;8.82;6.60;;;12.70;99.90;;;;;;5029700;28;20022;-53
2022/10/01 07:05:06;;;;;;;9.73;7.20;;;12.80;99.90;;;;;;5030482;28;20481;-58
2022/10/01 07:07:34;;;;;;;12.05;7.32;;;12.90;99.90;;;;;;5029901;28;20029;-49
2022/10/01 07:10:01;;;;;;;12.95;7.30;;;13.00;99.90;;;;;;5029484;28;20033;-51
2022/10/01 07:12:27;;;;;;;11.05;8.02;;;13.00;99.90;;;;;;5030190;28;20168;-51
2022/10/01 07:14:53;;;;;;;11.85;6.70;;;13.10;99.90;;;;;;5030035;28;20093;-50
2022/10/01 07:17:19;;;;;;;11.70;6.80;;;13.20;99.90;;;;;;5032491;28;20049;-52
2022/10/01 07:19:45;;;;;;;10.27;7.40;;;13.20;99.90;;;;;;5033974;28;20083;-52
2022/10/01 07:22:11;;;;;;;11.07;7.30;;;13.10;99.90;;;;;;5036779;28;20022;-52
2022/10/01 07:24:37;;;;;;;12.32;7.18;;;13.10;99.90;;;;;;5033635;28;20277;-54
2022/10/01 07:27:03;;;;;;;12.20;7.43;;;13.10;99.90;;;;;;5033962;28;20026;-61
2022/10/01 07:29:30;;;;;;;9.80;6.75;;;13.20;99.90;;;;;;5033199;28;20080;-60
2022/10/01 07:31:59;;;;;;;12.50;7.88;;;13.40;99.90;;;;;;5033524;28;20393;-61
2022/10/01 07:34:26;;;;;;;12.80;7.18;;;13.50;99.90;;;;;;5033031;28;20052;-55
2022/10/01 07:36:53;;;;;;;14.18;8.10;;;13.50;99.90;;;;;;5033793;28;20108;-57
2022/10/01 07:39:19;;;;;;;13.20;7.20;;;13.60;99.90;;;;;;5032873;28;20025;-61
2022/10/01 07:41:45;;;;;;;12.60;7.95;;;13.60;99.90;;;;;;5033717;28;20021;-62
2022/10/01 07:44:10;;;;;;;13.05;8.57;;;13.70;99.90;;;;;;5033861;28;20028;-56
2022/10/01 07:46:37;;;;;;;13.52;8.80;;;13.90;99.90;;;;;;5033629;28;20018;-64
2022/10/01 07:49:03;;;;;;;9.88;7.68;;;13.90;99.90;;;;;;5032436;28;20481;-57
2022/10/01 07:51:29;;;;;;;15.27;8.85;;;14.00;99.90;;;;;;5033804;28;20025;-65
2022/10/01 07:53:55;;;;;;;11.93;9.18;;;14.10;99.90;;;;;;5032908;28;20576;-56
2022/10/01 07:56:21;;;;;;;11.32;8.35;;;14.10;99.90;;;;;;5033623;28;20018;-49
2022/10/01 07:58:46;;;;;;;15.25;9.00;;;14.20;99.90;;;;;;5033054;28;20025;-50
2022/10/01 08:01:12;;;;;;;15.45;9.05;;;14.40;99.90;;;;;;5032845;28;20037;-56
2022/10/01 08:03:38;;;;;;;16.75;9.30;;;14.40;99.90;;;;;;5033720;28;20026;-53
2022/10/01 08:06:05;;;;;;;14.05;9.15;;;14.50;99.90;;;;;;5032733;28;20436;-55
2022/10/01 08:08:31;;;;;;;14.13;8.82;;;14.50;99.90;;;;;;5033241;28;20084;-55
2022/10/01 08:10:57;;;;;;;10.52;7.43;;;14.60;99.90;;;;;;5032930;28;20595;-55
2022/10/01 08:13:25;;;;;;;12.82;8.90;;;14.70;99.90;;;;;;5033083;28;20497;-54
2022/10/01 08:15:54;;;;;;;15.02;9.43;;;14.70;99.90;;;;;;5032884;28;20465;-56
2022/10/01 08:18:21;;;;;;;13.70;8.88;;;14.80;99.90;;;;;;5032963;28;20030;-59
2022/10/01 08:20:47;;;;;;;15.60;8.77;;;14.90;99.90;;;;;;5031894;28;20060;-54
2022/10/01 08:23:15;;;;;;;18.40;10.00;;;15.00;99.90;;;;;;5033410;28;20053;-60
2022/10/01 08:25:42;;;;;;;17.63;9.18;;;15.10;99.90;;;;;;5033017;28;20021;-53
2022/10/01 08:28:09;;;;;;;15.27;9.05;;;15.10;99.90;;;;;;5031370;28;20037;-62
2022/10/01 08:30:38;;;;;;;16.17;10.43;;;15.20;99.90;;;;;;5032707;28;20021;-57
2022/10/01 08:33:05;;;;;;;14.95;9.90;;;15.30;99.90;;;;;;5032524;28;20490;-54
2022/10/01 08:35:31;;;;;;;15.48;9.88;;;15.40;99.90;;;;;;5032470;28;20422;-59
2022/10/01 08:38:01;;;;;;;14.65;10.02;;;15.40;99.90;;;;;;5032197;28;20025;-60
2022/10/01 08:40:27;;;;;;;15.30;9.27;;;15.50;99.90;;;;;;5032853;28;20096;-53
2022/10/01 08:43:00;;;;;;;13.18;9.05;;;15.40;99.90;;;;;;5031869;28;20443;-55
2022/10/01 08:45:38;;;;;;;14.50;8.43;;;15.40;99.90;;;;;;5033024;28;20021;-51
2022/10/01 08:48:18;;;;;;;14.48;8.52;;;15.40;99.90;;;;;;5031526;28;20624;-61
2022/10/01 08:50:56;;;;;;;14.63;8.30;;;15.40;99.90;;;;;;5032180;28;20038;-52
2022/10/01 08:54:11;;;;;;;11.93;8.43;;;15.50;99.90;;;;;;5032427;28;20116;-50
2022/10/01 08:56:43;;;;;;;11.80;7.95;;;15.60;99.90;;;;;;4960535;28;20083;-53
2022/10/01 08:59:31;;;;;;;11.65;7.35;;;15.70;99.90;;;;;;5030671;28;20108;-57
2022/10/01 09:01:58;;;;;;;10.95;7.43;;;15.80;99.90;;;;;;5031754;28;20029;-52
2022/10/01 09:04:24;;;;;;;12.38;8.45;;;15.70;99.90;;;;;;5031539;28;20026;-56
2022/10/01 09:07:12;;;;;;;11.45;7.85;;;15.60;99.90;;;;;;5032127;28;20473;-52
2022/10/01 09:09:55;;;;;;;12.10;6.80;;;15.50;99.90;;;;;;5031470;28;20128;-50
2022/10/01 09:12:38;;;;;;;10.30;6.85;;;15.40;99.90;;;;;;5032001;28;20045;-53
2022/10/01 09:15:30;;;;;;;8.57;5.65;;;15.30;99.90;;;;;;5031898;28;20029;-50
2022/10/01 09:18:14;;;;;;;12.07;6.13;;;15.30;99.90;;;;;;5030592;28;20046;-56
2022/10/01 09:20:51;;;;;;;10.18;5.43;;;15.20;99.90;;;;;;5031767;28;20047;-57
2022/10/01 09:23:24;;;;;;;7.85;5.47;;;15.10;99.90;;;;;;5031133;28;20083;-53
2022/10/01 09:25:50;;;;;;;9.55;6.00;;;15.10;99.90;;;;;;5031891;28;20033;-57
2022/10/01 09:28:19;;;;;;;8.38;6.18;;;15.10;99.90;;;;;;5064789;28;20040;-55
2022/10/01 09:30:55;;;;;;;9.30;6.05;;;15.00;99.90;;;;;;5032799;28;20037;-57
2022/10/01 09:33:24;;;;;;;10.02;6.22;;;15.00;99.90;;;;;;5031738;28;20026;-59
2022/10/01 09:36:00;;;;;;;10.48;6.30;;;15.00;99.90;;;;;;5031734;28;20022;-52
2022/10/01 09:38:47;;;;;;;9.45;6.68;;;15.00;99.90;;;;;;5029601;28;20393;-52
2022/10/01 09:41:13;;;;;;;10.40;6.20;;;15.00;99.90;;;;;;5031540;28;20018;-52
2022/10/01 09:43:41;;;;;;;8.82;6.07;;;15.10;99.90;;;;;;5031128;28;20218;-61
2022/10/01 09:46:12;;;;;;;9.02;6.20;;;15.20;99.90;;;;;;5031074;28;20094;-58
2022/10/01 09:48:53;;;;;;;8.32;5.63;;;15.30;99.90;;;;;;5031263;28;20040;-59
2022/10/01 09:51:46;;;;;;;9.82;5.63;;;15.20;99.90;;;;;;5031776;28;20133;-59
2022/10/01 09:54:31;;;;;;;9.05;6.32;;;15.20;99.90;;;;;;5029973;28;20052;-58
2022/10/01 09:57:14;;;;;;;9.70;5.88;;;15.10;99.90;;;;;;5031151;28;20547;-55
2022/10/01 09:59:47;;;;;;;7.57;4.63;;;15.10;99.90;;;;;;5030651;28;20057;-53
2022/10/01 10:02:27;;;;;;;6.45;4.28;;;14.90;99.90;;;;;;5031696;28;20037;-52
2022/10/01 10:05:09;;;;;;;5.18;3.70;;;14.80;99.90;;;;;;5031029;28;20031;-56
2022/10/01 10:07:36;;;;;;;6.38;3.17;;;14.70;99.90;;;;;;5030213;28;20501;-56
2022/10/01 10:10:15;;;;;;;5.97;3.40;;;14.60;99.90;;;;;;5031011;28;20037;-56
2022/10/01 10:12:42;;;;;;;7.15;3.70;;;14.50;99.90;;;;;;5030600;28;20025;-54
2022/10/01 10:15:16;;;;;;;6.18;4.25;;;14.50;99.90;;;;;;5030768;28;20033;-55
2022/10/01 10:17:45;;;;;;;7.90;3.83;;;14.50;99.90;;;;;;5030739;28;20049;-56
2022/10/01 10:20:21;;;;;;;7.47;3.72;;;14.60;99.90;;;;;;5030419;28;20021;-56
2022/10/01 10:22:46;;;;;;;5.10;2.97;;;14.70;99.90;;;;;;5030716;28;20033;-54
2022/10/01 10:25:23;;;;;;;6.05;2.97;;;14.80;99.90;;;;;;5030518;28;20097;-54
2022/10/01 10:27:54;;;;;;;4.90;2.60;;;14.90;99.90;;;;;;5029642;28;20037;-68
2022/10/01 10:30:27;;;;;;;5.25;2.42;;;15.00;99.90;;;;;;5031440;28;20545;-69
2022/10/01 10:33:00;;;;;;;5.85;2.70;;;15.10;99.90;;;;;;5031317;28;20025;-70
2022/10/01 10:35:27;;;;;;;4.25;2.70;;;15.20;99.90;;;;;;5030139;28;20022;-59
2022/10/01 10:37:54;;;;;;;8.90;2.75;;;15.40;99.90;;;;;;5030397;28;20079;-52
2022/10/01 10:40:41;;;;;;;6.55;2.60;;;15.70;99.90;;;;;;5029522;28;20083;-53
2022/10/01 10:43:21;;;;;;;7.15;2.65;;;16.10;99.90;;;;;;5030521;28;20105;-55
2022/10/01 10:45:56;;;;;;;9.45;2.42;;;16.40;99.90;;;;;;5030218;28;20079;-56
2022/10/01 10:48:27;;;;;;;6.40;2.20;;;16.60;99.90;;;;;;5029675;28;20041;-55
2022/10/01 10:50:59;;;;;;;7.28;2.22;;;16.70;99.90;;;;;;5032961;28;20108;-58
2022/10/01 10:53:27;;;;;;;9.20;1.92;;;16.70;99.90;;;;;;5035093;28;20048;-56
2022/10/01 10:55:57;;;;;;;6.72;2.05;;;16.80;99.90;;;;;;5033462;28;20033;-55
2022/10/01 10:58:28;;;;;;;5.80;1.77;;;16.90;99.90;;;;;;5034650;28;20036;-56
2022/10/01 11:00:57;;;;;;;4.53;1.60;;;17.20;99.90;;;;;;5034303;28;20025;-59
2022/10/01 11:03:27;;;;;;;3.40;1.40;;;17.40;99.90;;;;;;5034381;28;20048;-53
2022/10/01 11:05:55;;;;;;;6.35;1.40;;;17.50;99.90;;;;;;5033742;28;20099;-54
2022/10/01 11:08:26;;;;;;;5.05;1.42;;;17.40;99.90;;;;;;5031729;28;20041;-56
2022/10/01 11:11:01;;;;;;;4.25;1.25;;;17.10;99.90;;;;;;5033961;28;20052;-56
2022/10/01 11:14:06;;;;;;;8.23;1.50;;;17.00;99.90;;;;;;5034631;28;20025;-57
2022/10/01 11:16:32;;;;;;;4.57;1.27;;;17.10;99.90;;;;;;5021630;28;20041;-55
2022/10/01 11:19:21;;;;;;;3.60;1.30;;;17.10;99.90;;;;;;5033415;28;20079;-51
2022/10/01 11:21:57;;;;;;;3.60;1.27;;;17.20;99.90;;;;;;5048934;28;20031;-51
2022/10/01 11:24:41;;;;;;;3.83;0.90;;;17.20;99.90;;;;;;5034042;28;20036;-55
2022/10/01 11:27:11;;;;;;;11.07;1.30;;;17.20;97.90;;;;;;5033627;28;20099;-52
2022/10/01 11:30:00;;;;;;;6.68;0.82;;;17.20;96.50;;;;;;5030729;28;20042;-52
2022/10/01 11:32:44;;;;;;;7.03;1.35;;;17.20;95.60;;;;;;5032570;28;20025;-63
2022/10/01 11:35:20;;;;;;;6.50;1.60;;;17.30;95.10;;;;;;5032358;28;20563;-57
2022/10/01 11:37:46;;;;;;;6.50;1.55;;;17.30;95.30;;;;;;5032357;28;20103;-61
2022/10/01 11:40:42;;;;;;;6.80;1.27;;;17.20;94.80;;;;;;5032297;28;20407;-65
2022/10/01 11:43:41;;;;;;;3.65;1.00;;;17.20;94.00;;;;;;5030881;28;20460;-68
2022/10/01 11:46:28;;;;;;;5.95;1.30;;;17.30;93.10;;;;;;5037654;28;20033;-62
2022/10/01 11:49:20;;;;;;;5.25;1.20;;;17.20;91.30;;;;;;5062556;28;20037;-72
2022/10/01 11:51:52;;;;;;;5.65;1.27;;;17.20;91.40;;;;;;5069245;28;20381;-66
2022/10/01 11:54:23;;;;;;;2.97;1.10;;;17.20;90.40;;;;;;5073945;28;20480;-64
2022/10/01 11:59:51;;;;;;;9.05;1.25;;;17.20;90.70;;;;;;5073023;28;20108;-54
2022/10/01 12:02:36;;;;;;;4.35;1.00;;;17.10;90.70;;;;;;5072624;28;20028;-51
2022/10/01 12:05:15;;;;;;;3.72;1.48;;;17.10;90.80;;;;;;5072349;28;20021;-63
2022/10/01 12:07:58;;;;;;;6.75;1.35;;;17.00;91.20;;;;;;5071990;28;20039;-58
2022/10/01 12:10:37;;;;;;;5.53;1.38;;;16.90;91.60;;;;;;5058385;28;20021;-59
2022/10/01 12:13:31;;;;;;;7.22;2.20;;;16.80;91.60;;;;;;5051210;28;20047;-61
2022/10/01 12:16:41;;;;;;;7.90;1.33;;;16.80;92.00;;;;;;5068049;28;20098;-63
2022/10/01 12:19:21;;;;;;;3.40;0.90;;;16.90;91.70;;;;;;5028648;28;20025;-56
2022/10/01 12:22:22;;;;;;;2.60;0.85;;;17.10;90.90;;;;;;5030224;28;20029;-58
2022/10/01 12:24:48;;;;;;;5.63;1.37;;;17.10;90.50;;;;;;5040413;28;20050;-62
2022/10/01 12:27:46;;;;;;;2.53;0.90;;;17.00;90.60;;;;;;5072691;28;20039;-56
2022/10/01 12:30:19;;;;;;;4.28;0.90;;;16.70;91.90;;;;;;5072722;28;20474;-59
2022/10/01 12:33:14;;;;;;;5.63;1.20;;;16.30;93.10;;;;;;5071790;28;20020;-57
2022/10/01 12:36:36;;;;;;;5.28;1.20;;;15.90;94.10;;;;;;5072698;28;20060;-61
2022/10/01 12:39:30;;;;;;;10.30;1.75;;;15.80;95.00;;;;;;5054398;28;20040;-60
2022/10/01 12:41:59;;;;;;;9.73;1.40;;;15.80;95.80;;;;;;5072417;28;20028;-59
2022/10/01 12:44:44;;;;;;;7.50;1.48;;;15.90;96.00;;;;;;5072414;28;20032;-61
2022/10/01 12:47:35;;;;;;;5.45;1.23;;;15.90;96.60;;;;;;5071513;28;20032;-54
2022/10/01 12:50:06;;;;;;;8.90;1.42;;;16.00;96.80;;;;;;5071504;28;20119;-55
2022/10/01 12:53:11;;;;;;;6.80;1.15;;;16.10;97.20;;;;;;5071387;28;20047;-56
2022/10/01 12:56:06;;;;;;;5.85;2.00;;;16.10;97.50;;;;;;5071892;28;20515;-53
2022/10/01 12:59:12;;;;;;;7.15;1.40;;;16.10;97.60;;;;;;5039483;28;20079;-53
2022/10/01 13:01:56;;;;;;;9.60;1.30;;;16.20;97.20;;;;;;5049912;28;20040;-55
2022/10/01 13:04:48;;;;;;;8.15;1.55;;;16.40;97.20;;;;;;5050061;28;20033;-53
2022/10/01 13:07:55;;;;;;;4.38;1.20;;;16.60;96.60;;;;;;5049939;28;20032;-53